Time;durP1;ratioP1;P1;durP2;ratioP2;P2;SDS_P1;SDS_P2;PMS_P1;PMS_P2;Temp;Humidity;BMP_temperature;BMP_pressure;BME280_temperature;BME280_humidity;BME280_pressure;Samples;Min_cycle;Max_cycle;Signal;HPM_P1;HPM_P2
2023/03/27 00:01:11;;;;;;;8.25;1.58;;;;;;;1.24;100.00;101456.72;5012161;28;20064;-92
2023/03/27 00:03:39;;;;;;;7.30;1.95;;;;;;;1.41;100.00;101474.09;4995936;28;20050;-93
2023/03/27 00:06:15;;;;;;;5.25;1.90;;;;;;;1.24;100.00;101448.09;4996370;28;20054;-93
2023/03/27 00:08:46;;;;;;;3.92;1.67;;;;;;;1.53;100.00;101507.81;4997595;28;20050;-93
2023/03/27 00:11:14;;;;;;;10.82;2.20;;;;;;;1.19;100.00;101453.22;4995677;28;20104;-93
2023/03/27 00:13:42;;;;;;;6.25;2.30;;;;;;;1.28;100.00;101463.63;4995858;28;20065;-93
2023/03/27 00:16:20;;;;;;;7.20;2.20;;;;;;;1.45;100.00;101483.59;5012043;28;20058;-93
2023/03/27 00:18:47;;;;;;;6.95;1.80;;;;;;;1.45;100.00;101522.31;4996313;28;20055;-93
2023/03/27 00:21:14;;;;;;;8.00;1.75;;;;;;;1.40;100.00;101540.34;4995200;28;20404;-93
2023/03/27 00:23:41;;;;;;;6.25;2.03;;;;;;;1.29;100.00;101518.69;4994721;28;20138;-94
2023/03/27 00:26:10;;;;;;;6.63;2.17;;;;;;;1.16;100.00;101506.47;5009184;28;20484;-93
2023/03/27 00:28:38;;;;;;;7.40;1.85;;;;;;;1.54;100.00;101553.44;5009383;28;20053;-94
2023/03/27 00:31:10;;;;;;;8.93;2.45;;;;;;;1.28;100.00;101522.97;4993798;28;20408;-94
2023/03/27 00:33:37;;;;;;;7.55;2.47;;;;;;;1.41;100.00;101526.56;4993471;28;20057;-93
2023/03/27 00:36:05;;;;;;;6.95;2.55;;;;;;;1.24;100.00;101535.81;5026890;28;20053;-93
2023/03/27 00:38:32;;;;;;;6.45;1.55;;;;;;;1.63;100.00;101560.41;5011124;28;20050;-92
2023/03/27 00:40:59;;;;;;;6.55;1.80;;;;;;;1.41;100.00;101530.88;5013995;28;20550;-92
2023/03/27 00:43:32;;;;;;;8.05;1.88;;;;;;;1.61;100.00;101564.69;5004858;28;20484;-93
2023/03/27 00:46:14;;;;;;;7.63;2.38;;;;;;;1.75;100.00;101567.44;4993421;28;20053;-93
2023/03/27 00:48:45;;;;;;;7.18;1.92;;;;;;;1.56;100.00;101515.59;4996393;28;20074;-92
2023/03/27 00:51:14;;;;;;;4.85;1.85;;;;;;;1.54;100.00;101527.63;5012887;28;20056;-94
2023/03/27 00:53:42;;;;;;;10.27;3.03;;;;;;;1.77;100.00;101568.31;5013237;28;20050;-94
2023/03/27 00:56:10;;;;;;;4.82;1.88;;;;;;;1.68;100.00;101538.97;5014074;28;20404;-94
2023/03/27 00:58:59;;;;;;;6.72;1.90;;;;;;;1.89;100.00;101565.88;5013739;28;20400;-93
2023/03/27 01:01:27;;;;;;;8.65;1.92;;;;;;;1.83;100.00;101564.09;5014470;28;20054;-94
2023/03/27 01:04:03;;;;;;;10.18;1.95;;;;;;;1.78;100.00;101558.00;5013421;28;20141;-93
2023/03/27 01:06:31;;;;;;;10.85;2.70;;;;;;;1.77;100.00;101561.47;5030137;28;20057;-93
2023/03/27 01:08:58;;;;;;;8.95;1.65;;;;;;;1.66;100.00;101527.72;5010904;28;20121;-93
2023/03/27 01:11:28;;;;;;;7.07;1.75;;;;;;;2.02;100.00;101570.34;5014242;28;20054;-93
2023/03/27 01:14:11;;;;;;;6.65;1.77;;;;;;;1.99;100.00;101565.13;5014015;28;20503;-93
2023/03/27 01:16:51;;;;;;;7.10;2.10;;;;;;;1.58;100.00;101541.44;5013463;28;20046;-94
2023/03/27 01:19:29;;;;;;;7.53;2.30;;;;;;;1.99;100.00;101580.63;5012566;28;20050;-93
2023/03/27 01:22:22;;;;;;;8.25;1.88;;;;;;;1.98;100.00;101588.38;5014141;28;20057;-93
2023/03/27 01:25:18;;;;;;;7.38;1.88;;;;;;;1.82;100.00;101552.03;5013055;28;20042;-93
2023/03/27 01:28:11;;;;;;;5.97;1.73;;;;;;;1.73;100.00;101545.91;5012811;28;20507;-92
2023/03/27 01:30:39;;;;;;;7.47;1.70;;;;;;;1.99;100.00;101582.38;5010628;28;20060;-93
2023/03/27 01:33:37;;;;;;;8.70;1.88;;;;;;;1.99;100.00;101595.28;5009060;28;20046;-93
2023/03/27 01:36:29;;;;;;;8.75;3.10;;;;;;;1.99;100.00;101597.84;5002781;28;20050;-93
2023/03/27 01:38:58;;;;;;;10.18;1.65;;;;;;;1.98;100.00;101602.13;5010697;28;20053;-93
2023/03/27 01:41:33;;;;;;;3.22;1.35;;;;;;;1.79;100.00;101566.59;5000512;28;20065;-94
2023/03/27 01:44:16;;;;;;;6.05;1.77;;;;;;;1.61;100.00;101575.88;4992798;28;20472;-93
2023/03/27 01:46:51;;;;;;;6.93;1.98;;;;;;;1.40;100.00;101552.34;4999426;28;20064;-94
2023/03/27 01:49:32;;;;;;;6.97;1.85;;;;;;;1.63;100.00;101576.78;4995997;28;20128;-94
2023/03/27 01:52:05;;;;;;;6.63;2.00;;;;;;;1.65;100.00;101606.06;5013671;28;20046;-93
2023/03/27 01:54:36;;;;;;;6.82;1.75;;;;;;;1.65;100.00;101607.78;5013855;28;20488;-94
2023/03/27 01:57:21;;;;;;;9.70;2.20;;;;;;;1.89;100.00;101612.38;5008463;28;20507;-94
2023/03/27 01:59:58;;;;;;;5.55;1.65;;;;;;;1.44;100.00;101539.53;5012575;28;20116;-93
2023/03/27 02:02:55;;;;;;;7.43;1.67;;;;;;;1.57;100.00;101562.91;5022434;28;20097;-94
2023/03/27 02:05:29;;;;;;;4.32;1.50;;;;;;;1.90;100.00;101602.06;5014900;28;20076;-94
2023/03/27 02:08:03;;;;;;;6.45;1.60;;;;;;;1.37;100.00;101527.41;5015848;28;20046;-93
2023/03/27 02:10:36;;;;;;;4.20;1.70;;;;;;;1.83;100.00;101607.13;5014482;28;20045;-94
2023/03/27 02:13:08;;;;;;;4.45;1.67;;;;;;;1.51;100.00;101571.44;5016915;28;20050;-93
2023/03/27 02:15:39;;;;;;;5.78;1.67;;;;;;;1.22;100.00;101543.56;5028831;28;20054;-93
2023/03/27 02:18:11;;;;;;;9.13;1.70;;;;;;;1.32;100.00;101576.34;5011778;28;20128;-93
2023/03/27 02:20:39;;;;;;;7.72;1.60;;;;;;;1.65;100.00;101600.88;5028552;28;20072;-93
2023/03/27 02:23:07;;;;;;;6.75;1.80;;;;;;;0.95;100.00;101544.00;4995836;28;20077;-94
2023/03/27 02:25:39;;;;;;;5.68;1.73;;;;;;;1.35;100.00;101603.03;5009759;28;20053;-94
2023/03/27 02:28:37;;;;;;;6.47;1.83;;;;;;;1.39;100.00;101602.25;4996294;28;20038;-93
2023/03/27 02:31:10;;;;;;;7.70;2.10;;;;;;;1.17;100.00;101599.38;4995490;28;20046;-94
2023/03/27 02:34:24;;;;;;;5.87;1.90;;;;;;;1.25;100.00;101592.59;4997135;28;20161;-94
2023/03/27 02:37:20;;;;;;;6.22;1.60;;;;;;;1.24;100.00;101598.63;5010942;28;20299;-93
2023/03/27 02:40:34;;;;;;;11.85;2.20;;;;;;;1.04;100.00;101590.56;5006534;28;20046;-93
2023/03/27 02:43:11;;;;;;;10.07;2.40;;;;;;;0.97;100.00;101573.25;4959095;28;20058;-94
2023/03/27 02:46:01;;;;;;;8.52;1.98;;;;;;;0.89;100.00;101551.66;4974824;28;20055;-93
2023/03/27 02:48:41;;;;;;;6.38;1.70;;;;;;;1.13;100.00;101598.47;4997444;28;20085;-93
2023/03/27 02:51:07;;;;;;;5.90;1.92;;;;;;;1.19;100.00;101601.94;4998145;28;20046;-93
2023/03/27 02:53:42;;;;;;;4.85;1.77;;;;;;;1.01;100.00;101597.38;4998270;28;20480;-94
2023/03/27 02:56:10;;;;;;;5.10;1.83;;;;;;;0.96;100.00;101563.81;5016451;28;20399;-92
2023/03/27 02:58:48;;;;;;;7.18;1.50;;;;;;;1.29;100.00;101609.88;5022057;28;20046;-93
2023/03/27 03:01:18;;;;;;;6.00;2.25;;;;;;;0.95;100.00;101606.75;4994689;28;20060;-93
2023/03/27 03:03:54;;;;;;;10.55;1.80;;;;;;;0.71;100.00;101563.41;5010800;28;20046;-93
2023/03/27 03:06:28;;;;;;;9.63;2.95;;;;;;;1.08;100.00;101605.25;5001203;28;20458;-93
2023/03/27 03:09:00;;;;;;;6.00;1.60;;;;;;;0.96;100.00;101584.44;5014552;28;20124;-92
2023/03/27 03:11:29;;;;;;;7.28;1.80;;;;;;;1.14;100.00;101622.53;5014271;28;20061;-92
2023/03/27 03:13:56;;;;;;;7.28;2.75;;;;;;;1.04;100.00;101616.34;5014569;28;20054;-93
2023/03/27 03:16:23;;;;;;;8.07;1.65;;;;;;;1.13;100.00;101618.19;5014009;28;20058;-93
2023/03/27 03:18:50;;;;;;;8.50;1.75;;;;;;;1.02;100.00;101592.25;5008343;28;20038;-93
2023/03/27 03:21:17;;;;;;;5.95;1.55;;;;;;;1.01;100.00;101599.97;4994561;28;20050;-93
2023/03/27 03:23:45;;;;;;;11.30;1.75;;;;;;;1.22;100.00;101636.44;5002702;28;20438;-92
2023/03/27 03:26:25;;;;;;;6.25;1.83;;;;;;;1.05;100.00;101594.03;5000089;28;20057;-93
2023/03/27 03:28:53;;;;;;;5.90;1.88;;;;;;;1.23;100.00;101626.97;5004751;28;20130;-93
2023/03/27 03:31:42;;;;;;;7.43;1.80;;;;;;;0.94;100.00;101599.00;4994490;28;20416;-93
2023/03/27 03:34:15;;;;;;;7.00;2.30;;;;;;;1.28;100.00;101640.81;5004769;28;20057;-93
2023/03/27 03:36:43;;;;;;;6.88;1.90;;;;;;;0.93;100.00;101594.69;5015523;28;20145;-92
2023/03/27 03:39:11;;;;;;;8.63;2.45;;;;;;;0.86;100.00;101603.16;5005867;28;20054;-92
2023/03/27 03:41:38;;;;;;;8.40;2.03;;;;;;;0.90;100.00;101599.78;4995040;28;20105;-91
2023/03/27 03:44:05;;;;;;;4.60;1.70;;;;;;;0.97;100.00;101619.66;5014830;28;20046;-93
2023/03/27 03:46:32;;;;;;;12.10;1.65;;;;;;;1.09;100.00;101640.50;5013947;28;20073;-93
2023/03/27 03:48:59;;;;;;;6.57;2.50;;;;;;;1.09;100.00;101644.81;5015095;28;20050;-93
2023/03/27 03:51:27;;;;;;;11.80;2.00;;;;;;;0.57;100.00;101560.59;5014012;28;20053;-93
2023/03/27 03:53:53;;;;;;;7.90;1.77;;;;;;;0.91;100.00;101604.97;5013974;28;20053;-93
2023/03/27 03:56:20;;;;;;;8.77;1.92;;;;;;;0.78;100.00;101572.13;5030207;28;20050;-93
2023/03/27 03:58:47;;;;;;;13.20;2.97;;;;;;;0.95;100.00;101621.38;5029401;28;20050;-93
2023/03/27 04:01:14;;;;;;;8.40;2.10;;;;;;;0.93;100.00;101610.16;5014031;28;20058;-93
2023/03/27 04:03:41;;;;;;;3.55;1.50;;;;;;;1.17;100.00;101624.28;4999354;28;20504;-93
2023/03/27 04:06:09;;;;;;;9.40;1.77;;;;;;;1.18;100.00;101616.56;4993908;28;20049;-94
2023/03/27 04:08:36;;;;;;;13.73;2.20;;;;;;;1.30;100.00;101610.72;4997197;28;20045;-92
2023/03/27 04:11:04;;;;;;;7.82;1.80;;;;;;;1.37;100.00;101612.56;5014032;28;20408;-93
2023/03/27 04:13:31;;;;;;;3.47;1.40;;;;;;;1.37;100.00;101615.13;5001860;28;20093;-92
2023/03/27 04:16:00;;;;;;;7.03;1.40;;;;;;;1.63;100.00;101658.50;4993735;28;20535;-93
2023/03/27 04:18:29;;;;;;;7.13;1.77;;;;;;;1.45;100.00;101654.84;5002631;28;20056;-92
2023/03/27 04:20:57;;;;;;;5.88;1.90;;;;;;;1.20;100.00;101601.13;5012962;28;20061;-93
2023/03/27 04:23:29;;;;;;;4.45;1.42;;;;;;;1.51;100.00;101654.03;5012853;28;20057;-93
2023/03/27 04:25:59;;;;;;;5.95;1.67;;;;;;;0.94;100.00;101578.38;5011233;28;20060;-94
2023/03/27 04:28:29;;;;;;;3.83;1.55;;;;;;;1.22;100.00;101627.78;4994622;28;20057;-93
2023/03/27 04:30:56;;;;;;;6.30;1.50;;;;;;;1.20;100.00;101635.50;5014822;28;20050;-92
2023/03/27 04:33:24;;;;;;;4.43;1.60;;;;;;;1.16;100.00;101640.63;5000411;28;20381;-93
2023/03/27 04:35:56;;;;;;;11.65;1.90;;;;;;;1.13;100.00;101642.31;5013038;28;20060;-93
2023/03/27 04:38:35;;;;;;;10.00;1.85;;;;;;;0.99;100.00;101641.19;4994546;28;20077;-93
2023/03/27 04:41:03;;;;;;;6.47;1.77;;;;;;;0.96;100.00;101628.28;5003329;28;20057;-93
2023/03/27 04:43:30;;;;;;;7.93;1.60;;;;;;;0.94;100.00;101622.22;5012790;28;20052;-93
2023/03/27 04:45:57;;;;;;;8.20;1.63;;;;;;;0.93;100.00;101633.38;5012945;28;20056;-94
2023/03/27 04:48:25;;;;;;;10.10;1.90;;;;;;;0.86;100.00;101626.38;5011192;28;20054;-93
2023/03/27 04:50:52;;;;;;;13.60;2.45;;;;;;;0.78;100.00;101620.22;5000202;28;20053;-93
2023/03/27 04:53:19;;;;;;;8.05;1.98;;;;;;;0.72;100.00;101631.28;5014033;28;20054;-92
2023/03/27 04:55:49;;;;;;;15.20;2.20;;;;;;;1.07;100.00;101675.72;4995708;28;20101;-93
2023/03/27 04:58:17;;;;;;;6.55;1.95;;;;;;;1.02;100.00;101673.91;5011583;28;20050;-93
2023/03/27 05:00:49;;;;;;;5.47;1.65;;;;;;;0.71;100.00;101621.84;4997539;28;20072;-93
2023/03/27 05:03:17;;;;;;;9.43;1.85;;;;;;;0.73;100.00;101641.63;5001985;28;20052;-93
2023/03/27 05:05:49;;;;;;;6.03;1.70;;;;;;;0.93;100.00;101679.78;5006730;28;20061;-93
2023/03/27 05:08:16;;;;;;;6.18;1.65;;;;;;;0.88;100.00;101671.09;4994072;28;20054;-93
2023/03/27 05:10:45;;;;;;;5.45;1.75;;;;;;;0.68;100.00;101639.81;5012970;28;20064;-93
2023/03/27 05:13:12;;;;;;;10.13;3.17;;;;;;;0.94;100.00;101694.44;5011933;28;20046;-94
2023/03/27 05:15:39;;;;;;;6.97;1.80;;;;;;;0.73;100.00;101658.81;4993851;28;20053;-94
2023/03/27 05:18:06;;;;;;;18.52;3.78;;;;;;;0.82;100.00;101681.31;5012382;28;20053;-93
2023/03/27 05:20:34;;;;;;;7.80;1.92;;;;;;;0.81;100.00;101697.63;5011586;28;20053;-93
2023/03/27 05:23:01;;;;;;;7.20;1.50;;;;;;;0.74;100.00;101664.00;4992921;28;20061;-92
2023/03/27 05:25:29;;;;;;;7.97;1.80;;;;;;;0.88;100.00;101694.31;5005851;28;20053;-93
2023/03/27 05:27:56;;;;;;;10.50;2.17;;;;;;;0.36;100.00;101624.66;5001758;28;20088;-87
2023/03/27 05:30:25;;;;;;;8.25;1.95;;;;;;;0.54;100.00;101652.47;5012075;28;20294;-90
2023/03/27 05:32:52;;;;;;;8.38;1.73;;;;;;;0.44;100.00;101628.22;5011119;28;20493;-90
2023/03/27 05:35:22;;;;;;;4.43;1.67;;;;;;;0.78;100.00;101677.81;5015173;28;20133;-89
2023/03/27 05:37:51;;;;;;;9.13;2.15;;;;;;;0.93;100.00;101706.44;5011447;28;20109;-90
2023/03/27 05:40:27;;;;;;;4.90;1.40;;;;;;;0.79;100.00;101668.38;5009791;28;20054;-90
2023/03/27 05:42:55;;;;;;;6.63;1.80;;;;;;;0.87;100.00;101697.75;5005902;28;20065;-93
2023/03/27 05:45:22;;;;;;;4.07;1.40;;;;;;;0.95;100.00;101701.31;5016993;28;20062;-89
2023/03/27 05:47:56;;;;;;;7.50;1.70;;;;;;;0.60;100.00;101678.31;5007441;28;20472;-88
2023/03/27 05:50:27;;;;;;;12.40;2.22;;;;;;;0.90;100.00;101714.13;5012106;28;20480;-92
2023/03/27 05:52:58;;;;;;;5.47;1.60;;;;;;;0.81;100.00;101721.69;5025467;28;20045;-93
2023/03/27 05:55:26;;;;;;;7.30;1.52;;;;;;;0.67;100.00;101682.75;5015977;28;20060;-93
2023/03/27 05:57:54;;;;;;;5.95;1.80;;;;;;;0.71;100.00;101699.19;5016773;28;20051;-92
2023/03/27 06:00:25;;;;;;;6.95;1.63;;;;;;;0.51;100.00;101694.53;5006450;28;20042;-92
2023/03/27 06:02:56;;;;;;;10.35;2.10;;;;;;;0.76;100.00;101728.47;5017099;28;20054;-93
2023/03/27 06:05:26;;;;;;;8.13;2.38;;;;;;;0.71;100.00;101724.94;5008788;28;20087;-92
2023/03/27 06:07:53;;;;;;;8.10;1.85;;;;;;;0.46;100.00;101675.53;5011847;28;20444;-91
2023/03/27 06:10:20;;;;;;;2.92;1.38;;;;;;;0.33;100.00;101664.09;5024246;28;20542;-92
2023/03/27 06:12:57;;;;;;;12.88;2.40;;;;;;;0.66;100.00;101724.84;5011185;28;20056;-92
2023/03/27 06:15:25;;;;;;;7.47;1.92;;;;;;;0.79;100.00;101725.94;5009812;28;20251;-92
2023/03/27 06:17:52;;;;;;;8.25;2.83;;;;;;;0.22;100.00;101654.44;5014921;28;20069;-90
2023/03/27 06:20:20;;;;;;;5.47;1.80;;;;;;;0.29;100.00;101690.63;5012350;28;20057;-90
2023/03/27 06:22:52;;;;;;;5.50;1.70;;;;;;;0.72;100.00;101735.25;5010254;28;20118;-90
2023/03/27 06:25:19;;;;;;;9.50;3.47;;;;;;;0.54;100.00;101715.16;5023062;28;20489;-91
2023/03/27 06:27:48;;;;;;;7.45;1.70;;;;;;;0.93;100.00;101739.94;5021152;28;20131;-91
2023/03/27 06:30:20;;;;;;;7.90;1.92;;;;;;;1.02;100.00;101738.41;5010309;28;20058;-89
2023/03/27 06:32:58;;;;;;;8.05;1.88;;;;;;;0.72;100.00;101706.03;5012430;28;20052;-90
2023/03/27 06:35:27;;;;;;;6.43;1.83;;;;;;;0.93;100.00;101745.13;5003882;28;20058;-90
2023/03/27 06:37:55;;;;;;;10.00;2.15;;;;;;;0.99;100.00;101740.91;5005124;28;20393;-90
2023/03/27 06:40:23;;;;;;;6.25;1.98;;;;;;;0.64;100.00;101677.56;5012233;28;20054;-91
2023/03/27 06:42:57;;;;;;;9.73;1.85;;;;;;;0.83;100.00;101689.06;5012409;28;20054;-91
2023/03/27 06:45:28;;;;;;;5.97;2.00;;;;;;;1.03;100.00;101746.16;5019524;28;20050;-90
2023/03/27 06:47:58;;;;;;;10.13;1.95;;;;;;;1.08;100.00;101723.00;5028865;28;20387;-90
2023/03/27 06:50:46;;;;;;;8.63;2.00;;;;;;;1.30;100.00;101742.31;5008013;28;20060;-90
2023/03/27 06:53:15;;;;;;;6.47;2.03;;;;;;;1.19;100.00;101756.72;5013013;28;20058;-91
2023/03/27 06:55:53;;;;;;;8.93;2.42;;;;;;;1.20;100.00;101737.84;5011334;28;20066;-90
2023/03/27 06:58:20;;;;;;;9.23;2.35;;;;;;;1.16;100.00;101746.38;5009668;28;20054;-91
2023/03/27 07:00:48;;;;;;;9.07;1.90;;;;;;;1.88;100.00;101763.88;5003652;28;20050;-91
2023/03/27 07:03:16;;;;;;;15.90;7.45;;;;;;;2.01;100.00;101756.31;5012761;28;20077;-91
2023/03/27 07:05:44;;;;;;;11.63;2.70;;;;;;;2.69;100.00;101760.59;5011466;28;20108;-90
2023/03/27 07:08:13;;;;;;;7.88;2.03;;;;;;;3.07;100.00;101743.78;4997918;28;20046;-87
2023/03/27 07:10:44;;;;;;;8.98;1.92;;;;;;;3.41;100.00;101744.94;5012867;28;20053;-87
2023/03/27 07:13:19;;;;;;;8.48;2.83;;;;;;;3.62;100.00;101754.59;5027191;28;20058;-87
2023/03/27 07:15:45;;;;;;;9.57;2.03;;;;;;;3.55;100.00;101753.66;5013857;28;20058;-89
2023/03/27 07:18:14;;;;;;;9.02;1.63;;;;;;;3.42;100.00;101733.72;5011755;28;20046;-87
2023/03/27 07:20:40;;;;;;;10.77;2.00;;;;;;;3.70;100.00;101759.81;5000558;28;20077;-87
2023/03/27 07:23:08;;;;;;;10.48;2.30;;;;;;;4.36;100.00;101766.25;5012588;28;20411;-87
2023/03/27 07:25:39;;;;;;;7.82;1.95;;;;;;;3.97;100.00;101741.88;5014530;28;20054;-87
2023/03/27 07:28:09;;;;;;;7.80;2.13;;;;;;;4.66;100.00;101754.28;5003836;28;20050;-86
2023/03/27 07:30:37;;;;;;;10.85;1.77;;;;;;;4.77;100.00;101771.63;5010381;28;20052;-86
2023/03/27 07:33:06;;;;;;;13.98;2.33;;;;;;;5.22;100.00;101768.22;5012169;28;20140;-86
2023/03/27 07:35:32;;;;;;;6.18;1.85;;;;;;;5.59;100.00;101752.66;5021666;28;20054;-86
2023/03/27 07:38:02;;;;;;;8.85;1.95;;;;;;;5.15;100.00;101763.88;4999959;28;20719;-86
2023/03/27 07:40:28;;;;;;;8.65;1.90;;;;;;;5.11;100.00;101754.38;5010735;28;20480;-86
2023/03/27 07:43:06;;;;;;;7.97;1.80;;;;;;;5.71;100.00;101767.38;5027603;28;20101;-85
2023/03/27 07:45:34;;;;;;;8.63;1.65;;;;;;;5.46;100.00;101792.50;4994231;28;20085;-86
2023/03/27 07:48:07;;;;;;;6.57;1.70;;;;;;;5.63;100.00;101787.28;5003413;28;20100;-86
2023/03/27 07:50:34;;;;;;;9.23;2.03;;;;;;;5.97;100.00;101797.72;5012584;28;20128;-86
2023/03/27 07:53:01;;;;;;;8.35;2.35;;;;;;;5.81;100.00;101765.66;5012664;28;20049;-86
2023/03/27 07:55:28;;;;;;;10.18;1.88;;;;;;;5.42;100.00;101762.16;5025998;28;20046;-86
2023/03/27 07:57:55;;;;;;;6.82;1.60;;;;;;;5.83;100.00;101764.75;5011835;28;20050;-86
2023/03/27 08:00:28;;;;;;;5.03;1.65;;;;;;;5.61;100.00;101789.03;5010387;28;20057;-86
2023/03/27 08:03:10;;;;;;;5.88;1.52;;;;;;;5.75;100.00;101786.44;5014147;28;20060;-86
2023/03/27 08:05:37;;;;;;;8.45;1.92;;;;;;;5.87;100.00;101744.81;5010512;28;20049;-86
2023/03/27 08:08:04;;;;;;;7.50;1.77;;;;;;;6.10;100.00;101749.16;5004284;28;20054;-86
2023/03/27 08:10:31;;;;;;;4.55;1.60;;;;;;;5.74;100.00;101766.50;5006077;28;20077;-86
2023/03/27 08:12:58;;;;;;;12.13;2.10;;;;;;;5.72;100.00;101740.53;5006815;28;20502;-86
2023/03/27 08:15:24;;;;;;;6.32;1.40;;;;;;;6.23;100.00;101745.63;5012129;28;20088;-86
2023/03/27 08:17:53;;;;;;;6.72;1.80;;;;;;;6.15;100.00;101789.00;5013024;28;20068;-86
2023/03/27 08:20:22;;;;;;;7.60;1.70;;;;;;;6.07;100.00;101781.19;5005920;28;20041;-86
2023/03/27 08:22:51;;;;;;;10.98;1.70;;;;;;;6.17;100.00;101788.13;5009057;28;20078;-86
2023/03/27 08:25:21;;;;;;;4.97;1.50;;;;;;;6.30;100.00;101764.69;5002427;28;20108;-86
2023/03/27 08:27:48;;;;;;;11.43;2.13;;;;;;;6.33;100.00;101791.53;5011091;28;20061;-86
2023/03/27 08:30:15;;;;;;;8.60;1.77;;;;;;;6.59;100.00;101786.25;5016032;28;20222;-86
2023/03/27 08:32:43;;;;;;;10.82;1.95;;;;;;;6.36;100.00;101775.06;5009898;28;20050;-86
2023/03/27 08:35:10;;;;;;;8.77;2.05;;;;;;;6.65;100.00;101764.53;5000841;28;20403;-87
2023/03/27 08:37:38;;;;;;;4.93;1.67;;;;;;;7.31;100.00;101773.69;5007635;28;20060;-87
2023/03/27 08:40:12;;;;;;;5.63;1.67;;;;;;;7.34;100.00;101747.59;5010902;28;20557;-88
2023/03/27 08:42:42;;;;;;;10.35;1.90;;;;;;;6.98;100.00;101792.13;5027578;28;20046;-86
2023/03/27 08:45:17;;;;;;;7.05;1.58;;;;;;;7.01;100.00;101767.78;5011920;28;20483;-86
2023/03/27 08:47:56;;;;;;;10.02;1.92;;;;;;;6.59;100.00;101782.78;5019224;28;20058;-86
2023/03/27 08:50:32;;;;;;;8.38;1.77;;;;;;;6.77;100.00;101781.84;5015123;28;20116;-86
2023/03/27 08:53:01;;;;;;;10.38;1.80;;;;;;;6.74;100.00;101776.63;5001541;28;20073;-86
2023/03/27 08:55:46;;;;;;;8.52;1.70;;;;;;;6.25;100.00;101734.34;5011038;28;20469;-86
2023/03/27 08:58:22;;;;;;;6.53;1.60;;;;;;;7.32;100.00;101770.22;5012195;28;20442;-86
2023/03/27 09:01:14;;;;;;;7.15;1.67;;;;;;;7.17;100.00;101776.38;5011766;28;20049;-86
2023/03/27 09:03:41;;;;;;;8.57;1.67;;;;;;;7.37;100.00;101791.88;5011964;28;20088;-86
2023/03/27 09:06:38;;;;;;;8.15;1.73;;;;;;;6.71;100.00;101780.13;5006180;28;20124;-85
2023/03/27 09:09:38;;;;;;;7.18;1.80;;;;;;;7.14;100.00;101795.50;4994667;28;20061;-87
2023/03/27 09:12:25;;;;;;;8.32;1.80;;;;;;;7.22;100.00;101772.00;5006538;28;20058;-86
2023/03/27 09:14:57;;;;;;;8.13;1.70;;;;;;;7.14;100.00;101786.84;5011590;28;20499;-85
2023/03/27 09:17:33;;;;;;;8.23;2.15;;;;;;;7.18;100.00;101794.59;5023252;28;20119;-87
2023/03/27 09:20:22;;;;;;;8.63;1.58;;;;;;;7.39;100.00;101798.78;4996506;28;20053;-87
2023/03/27 09:22:56;;;;;;;8.48;1.98;;;;;;;7.29;100.00;101801.47;5009898;28;20050;-85
2023/03/27 09:25:39;;;;;;;7.47;1.70;;;;;;;6.63;100.00;101790.56;5027464;28;20050;-86
2023/03/27 09:28:22;;;;;;;13.43;1.88;;;;;;;6.82;100.00;101778.31;5011077;28;20046;-85
2023/03/27 09:30:49;;;;;;;9.93;2.40;;;;;;;6.48;100.00;101772.44;5021546;28;20105;-85
2023/03/27 09:33:16;;;;;;;13.20;2.25;;;;;;;6.66;100.00;101784.50;5017423;28;20523;-86
2023/03/27 09:35:43;;;;;;;7.85;1.50;;;;;;;6.81;100.00;101734.94;5011252;28;20097;-85
2023/03/27 09:38:38;;;;;;;14.35;2.60;;;;;;;6.35;100.00;101729.13;5027304;28;20396;-85
2023/03/27 09:41:14;;;;;;;9.07;1.75;;;;;;;6.55;100.00;101750.72;5001844;28;20046;-85
2023/03/27 09:44:09;;;;;;;9.38;1.98;;;;;;;6.33;100.00;101726.50;5010208;28;20049;-86
2023/03/27 09:46:41;;;;;;;11.15;1.95;;;;;;;6.57;100.00;101782.78;5018573;28;20488;-85
2023/03/27 09:49:14;;;;;;;9.98;2.20;;;;;;;7.14;100.00;101779.03;5014165;28;20052;-85
2023/03/27 09:51:45;;;;;;;7.85;1.83;;;;;;;6.68;100.00;101774.94;4998665;28;20073;-87
2023/03/27 09:54:15;;;;;;;9.73;3.55;;;;;;;6.59;100.00;101786.25;5014094;28;20061;-87
2023/03/27 09:56:46;;;;;;;17.42;2.47;;;;;;;6.15;100.00;101765.59;5010826;28;20476;-86
2023/03/27 09:59:27;;;;;;;8.95;2.22;;;;;;;6.54;100.00;101794.94;4999311;28;20096;-85
2023/03/27 10:01:57;;;;;;;9.80;1.83;;;;;;;6.82;100.00;101775.72;5004734;28;20053;-86
2023/03/27 10:04:26;;;;;;;8.57;1.67;;;;;;;6.96;100.00;101777.41;5004738;28;20046;-85
2023/03/27 10:07:07;;;;;;;9.80;2.20;;;;;;;6.93;100.00;101782.63;5004924;28;20057;-85
2023/03/27 10:09:36;;;;;;;8.73;1.92;;;;;;;6.98;100.00;101788.66;5006003;28;20046;-85
2023/03/27 10:12:06;;;;;;;6.25;2.05;;;;;;;7.43;100.00;101780.53;5006396;28;20049;-85
2023/03/27 10:14:42;;;;;;;5.78;1.67;;;;;;;7.41;100.00;101783.16;5030787;28;20054;-85
2023/03/27 10:17:25;;;;;;;14.40;2.35;;;;;;;7.28;100.00;101766.75;5017906;28;20046;-85
2023/03/27 10:19:58;;;;;;;9.48;2.22;;;;;;;7.00;96.04;101708.78;5000046;28;20061;-85
2023/03/27 10:22:36;;;;;;;9.55;1.80;;;;;;;6.98;93.23;101716.63;5011298;28;20058;-85
2023/03/27 10:25:15;;;;;;;10.40;2.22;;;;;;;6.91;94.65;101719.28;5003413;28;20539;-85
2023/03/27 10:27:42;;;;;;;9.27;1.70;;;;;;;7.45;92.18;101750.97;5015541;28;20057;-86
2023/03/27 10:30:32;;;;;;;10.73;1.92;;;;;;;7.21;89.79;101765.06;5011995;28;20120;-85
2023/03/27 10:32:59;;;;;;;7.93;1.90;;;;;;;7.36;92.33;101748.47;4997225;28;20518;-85
2023/03/27 10:35:33;;;;;;;9.10;2.42;;;;;;;7.06;84.67;101767.78;5010969;28;20403;-85
2023/03/27 10:38:09;;;;;;;8.55;1.90;;;;;;;7.21;87.37;101771.16;5007986;28;20386;-85
2023/03/27 10:40:38;;;;;;;7.97;1.80;;;;;;;7.72;88.46;101772.47;5017632;28;20061;-86
2023/03/27 10:43:11;;;;;;;6.75;1.63;;;;;;;7.25;84.29;101716.44;5015203;28;20058;-85
2023/03/27 10:45:58;;;;;;;;;;;;;;;7.52;86.45;101780.47;5015029;28;20475;-86
2023/03/27 10:48:37;;;;;;;10.88;2.10;;;;;;;7.86;83.82;101788.88;5012543;28;20524;-86
2023/03/27 10:51:12;;;;;;;5.53;1.67;;;;;;;7.79;81.67;101748.94;5014059;28;20061;-86
2023/03/27 10:53:49;;;;;;;8.07;1.67;;;;;;;8.23;86.09;101751.94;5007727;28;20462;-86
2023/03/27 10:56:28;;;;;;;11.60;2.13;;;;;;;7.77;79.66;101708.09;5014968;28;20057;-85
2023/03/27 10:59:10;;;;;;;8.55;1.70;;;;;;;7.92;80.63;101778.38;5012492;28;20045;-86
2023/03/27 11:01:42;;;;;;;6.63;1.70;;;;;;;7.73;84.53;101719.47;5002539;28;20064;-86
2023/03/27 11:04:30;;;;;;;5.07;1.33;;;;;;;8.29;78.26;101766.69;5013761;28;20054;-85
2023/03/27 11:07:02;;;;;;;5.60;1.35;;;;;;;8.18;77.51;101749.41;5009804;28;20041;-86
2023/03/27 11:09:35;;;;;;;11.02;1.88;;;;;;;8.01;75.97;101733.06;5010316;28;20054;-86
2023/03/27 11:12:21;;;;;;;6.30;1.63;;;;;;;8.03;73.54;101753.91;5020853;28;20046;-85
2023/03/27 11:15:08;;;;;;;5.60;1.60;;;;;;;7.99;73.26;101780.03;5026546;28;20100;-86
2023/03/27 11:17:42;;;;;;;6.13;1.40;;;;;;;7.95;73.34;101746.16;4983692;28;20050;-86
2023/03/27 11:20:20;;;;;;;5.80;1.75;;;;;;;8.58;74.20;101783.75;4997486;28;20054;-86
2023/03/27 11:22:59;;;;;;;7.75;1.52;;;;;;;8.02;73.36;101739.16;5004329;28;20058;-86
2023/03/27 11:25:28;;;;;;;12.30;1.70;;;;;;;8.01;73.78;101784.38;4994713;28;20062;-86
2023/03/27 11:28:12;;;;;;;6.97;1.60;;;;;;;7.46;75.60;101718.84;5006970;28;20338;-85
2023/03/27 11:30:45;;;;;;;3.28;1.10;;;;;;;8.55;77.81;101748.09;5010185;28;20047;-86
2023/03/27 11:33:27;;;;;;;8.52;1.80;;;;;;;8.33;71.08;101779.66;5018513;28;20499;-85
2023/03/27 11:36:10;;;;;;;6.72;1.70;;;;;;;8.22;71.78;101739.78;4999294;28;20057;-85
2023/03/27 11:38:40;;;;;;;;;;;;;;;8.41;66.88;101790.03;5005781;28;20050;-86
2023/03/27 11:41:11;;;;;;;3.60;1.30;;;;;;;8.35;65.86;101737.91;4998882;28;19929;-86
2023/03/27 11:43:40;;;;;;;6.05;1.20;;;;;;;8.93;64.02;101746.72;4997006;28;20475;-86
2023/03/27 11:46:38;;;;;;;3.95;1.30;;;;;;;9.39;67.05;101787.84;5009011;28;20054;-86
2023/03/27 11:49:30;;;;;;;7.43;1.35;;;;;;;9.12;68.30;101756.03;4994041;28;20042;-86
2023/03/27 11:52:10;;;;;;;3.83;1.23;;;;;;;9.72;69.32;101776.81;5007523;28;20393;-86